KLKV/LKV METAR and TAF weather

Enter ICAO airport designator
Station Type Date Time Source
KLKV METAR 2019/08/22 05:43 UTC NOAA

KLKV 220543Z AUTO 34008KT 10SM -RA SCT020 BKN029 OVC065 14/13 A3011 RMK AO2 P0000


Station Type Date Time Source
KLKV Decoded METAR 2019/08/22 05:43 UTC NOAA

Station name not available
Aug 22, 2019 - 01:43 AM EDT / 2019.08.22 0543 UTC
Wind: from the NNW (340 degrees) at 9 MPH (8 KT):0
Visibility: 10 mile(s):0
Sky conditions: overcast
Weather: light rain
Precipitation last hour: A trace
Temperature: 57 F (14 C)
Dew Point: 55 F (13 C)
Relative Humidity: 93%
Pressure (altimeter): 30.11 in. Hg (1019 hPa)
ob: KLKV 220543Z AUTO 34008KT 10SM -RA SCT020 BKN029 OVC065 14/13 A3011 RMK AO2 P0000
cycle: 5

Station Type Date Time Source
KLKV TAF UTC NOAA

Error!

Example: see airport list